createdAt,value
2022-12-19T00:01:38.029Z,68.35
2022-12-19T00:04:09.125Z,66.78
2022-12-19T00:06:37.831Z,62.67
2022-12-19T00:09:06.083Z,72.37
2022-12-19T00:11:33.885Z,68.32
2022-12-19T00:14:01.036Z,72.80
2022-12-19T00:16:29.895Z,66.60
2022-12-19T00:18:59.748Z,55.83
2022-12-19T00:21:34.695Z,63.13
2022-12-19T00:24:09.848Z,66.68
2022-12-19T00:26:49.818Z,64.80
2022-12-19T00:29:17.252Z,73.90
2022-12-19T00:31:45.697Z,74.15
2022-12-19T00:34:15.107Z,63.40
2022-12-19T00:36:42.523Z,68.32
2022-12-19T00:39:10.559Z,71.03
2022-12-19T00:41:41.599Z,60.38
2022-12-19T00:44:16.601Z,70.78
2022-12-19T00:46:50.259Z,63.83
2022-12-19T00:49:21.025Z,72.47
2022-12-19T00:51:48.171Z,64.90
2022-12-19T00:54:15.432Z,68.20
2022-12-19T00:56:43.150Z,69.10
2022-12-19T00:59:10.676Z,81.05
2022-12-19T01:01:40.425Z,76.10
2022-12-19T01:04:28.093Z,65.35
2022-12-19T01:07:02.715Z,57.53
2022-12-19T01:12:18.263Z,67.80
2022-12-19T01:14:45.582Z,61.42
2022-12-19T01:17:13.145Z,61.70
2022-12-19T01:19:43.961Z,64.37
2022-12-19T01:22:13.506Z,60.08
2022-12-19T01:24:41.333Z,62.92
2022-12-19T01:27:08.771Z,71.32
2022-12-19T01:29:38.892Z,71.87
2022-12-19T01:32:20.729Z,60.58
2022-12-19T01:34:48.177Z,69.03
2022-12-19T01:37:18.432Z,63.25
2022-12-19T01:39:46.126Z,72.00
2022-12-19T01:42:19.597Z,60.30
2022-12-19T01:45:04.830Z,61.65
2022-12-19T01:47:33.751Z,55.53
2022-12-19T01:50:01.957Z,50.05
2022-12-19T01:52:30.168Z,66.35
2022-12-19T01:54:57.661Z,62.58
2022-12-19T01:57:26.073Z,55.35
2022-12-19T01:59:56.768Z,58.40
2022-12-19T02:02:34.175Z,75.20
2022-12-19T02:05:01.920Z,67.15
2022-12-19T02:07:29.104Z,91.70
2022-12-19T02:09:58.685Z,98.15
2022-12-19T02:12:26.886Z,87.35
2022-12-19T02:14:56.001Z,51.92
2022-12-19T02:17:52.811Z,100.70
2022-12-19T02:20:51.537Z,78.95
2022-12-19T02:23:43.166Z,77.60
2022-12-19T02:26:22.686Z,72.37
2022-12-19T02:29:12.300Z,117.62
2022-12-19T02:32:01.333Z,88.70
2022-12-19T02:34:41.323Z,93.37
2022-12-19T02:37:21.373Z,100.47
2022-12-19T02:40:10.943Z,70.07
2022-12-19T02:42:40.088Z,85.05
2022-12-19T02:45:10.266Z,115.57
2022-12-19T02:47:39.376Z,70.72
2022-12-19T02:50:07.667Z,75.85
2022-12-19T02:52:35.090Z,102.62
2022-12-19T02:55:09.504Z,78.05
2022-12-19T02:57:43.237Z,96.43
2022-12-19T03:00:14.686Z,71.85
2022-12-19T03:03:18.189Z,92.45
2022-12-19T03:05:54.986Z,83.07
2022-12-19T03:09:02.439Z,80.87
2022-12-19T03:11:35.458Z,75.32
2022-12-19T03:14:07.393Z,93.20
2022-12-19T03:16:36.674Z,67.57
2022-12-19T03:19:09.874Z,70.43
2022-12-19T03:21:43.614Z,69.62
2022-12-19T03:24:12.302Z,73.53
2022-12-19T03:26:47.162Z,72.97
2022-12-19T03:29:23.002Z,68.55
2022-12-19T03:31:51.727Z,67.40
2022-12-19T03:34:23.610Z,60.28
2022-12-19T03:36:55.562Z,65.72
2022-12-19T03:39:23.667Z,65.87
2022-12-19T03:42:10.504Z,67.12
2022-12-19T03:44:40.515Z,74.55
2022-12-19T03:47:28.306Z,75.35
2022-12-19T03:49:55.783Z,67.87
2022-12-19T03:52:30.030Z,78.45
2022-12-19T03:55:16.861Z,67.72
2022-12-19T03:58:20.999Z,61.55
2022-12-19T04:00:48.809Z,66.22
2022-12-19T04:03:17.597Z,69.90
2022-12-19T04:05:45.992Z,68.55
2022-12-19T04:08:13.466Z,57.50
2022-12-19T04:11:01.268Z,66.15
2022-12-19T04:13:34.685Z,67.25
2022-12-19T04:16:08.923Z,57.15
2022-12-19T04:18:36.635Z,73.28
2022-12-19T04:21:23.942Z,70.32
2022-12-19T04:23:55.326Z,79.55
2022-12-19T04:26:23.635Z,72.10
2022-12-19T04:28:55.551Z,64.93
2022-12-19T04:31:23.601Z,60.05
2022-12-19T04:33:50.763Z,72.00
2022-12-19T04:36:17.872Z,72.62
2022-12-19T04:38:45.601Z,56.55
2022-12-19T04:41:12.644Z,70.10
2022-12-19T04:43:39.696Z,58.97
2022-12-19T04:46:07.175Z,55.00
2022-12-19T04:48:37.613Z,64.57
2022-12-19T04:51:04.712Z,51.63
2022-12-19T04:53:32.639Z,68.93
2022-12-19T04:56:04.660Z,57.45
2022-12-19T04:58:32.441Z,55.78
2022-12-19T05:01:04.524Z,72.68
2022-12-19T05:03:33.143Z,56.25
2022-12-19T05:06:09.976Z,77.45
2022-12-19T05:08:38.993Z,83.93
2022-12-19T05:11:07.140Z,75.45
2022-12-19T05:13:34.321Z,66.75
2022-12-19T05:16:06.649Z,87.72
2022-12-19T05:18:34.353Z,76.05
2022-12-19T05:21:01.657Z,65.85
2022-12-19T05:23:28.891Z,69.65
2022-12-19T05:25:59.750Z,64.05
2022-12-19T05:28:27.408Z,67.93
2022-12-19T05:31:15.567Z,53.40
2022-12-19T05:33:43.177Z,64.60
2022-12-19T05:36:11.560Z,76.22
2022-12-19T05:38:38.698Z,74.75
2022-12-19T05:41:11.996Z,62.15
2022-12-19T05:43:42.679Z,72.50
2022-12-19T05:46:10.078Z,56.05
2022-12-19T05:48:38.250Z,62.60
2022-12-19T05:51:05.413Z,68.68
2022-12-19T05:53:35.157Z,86.95
2022-12-19T05:56:14.059Z,69.00
2022-12-19T05:58:42.084Z,69.15
2022-12-19T06:01:11.667Z,59.15
2022-12-19T06:03:39.127Z,75.50
2022-12-19T06:06:09.555Z,85.62
2022-12-19T06:08:36.847Z,82.93
2022-12-19T06:11:05.869Z,81.32
2022-12-19T06:13:33.703Z,83.22
2022-12-19T06:16:02.557Z,82.22
2022-12-19T06:18:30.992Z,90.82
2022-12-19T06:21:06.517Z,85.43
2022-12-19T06:23:35.717Z,84.25
2022-12-19T06:26:05.070Z,91.60
2022-12-19T06:28:33.011Z,103.00
2022-12-19T06:31:02.291Z,88.30
2022-12-19T06:33:30.154Z,84.80
2022-12-19T06:36:02.233Z,102.62
2022-12-19T06:38:30.244Z,101.55
2022-12-19T06:41:16.055Z,74.87
2022-12-19T06:43:43.466Z,69.37
2022-12-19T06:46:10.900Z,114.57
2022-12-19T06:48:38.159Z,87.57
2022-12-19T06:51:05.719Z,131.37
2022-12-19T06:53:32.809Z,112.70
2022-12-19T06:56:00.240Z,113.90
2022-12-19T06:58:27.608Z,75.65
2022-12-19T07:00:54.688Z,86.28
2022-12-19T07:03:29.861Z,162.85
2022-12-19T07:05:57.302Z,81.35
2022-12-19T07:08:24.371Z,90.97
2022-12-19T07:10:54.239Z,94.50
2022-12-19T07:13:21.797Z,119.43
2022-12-19T07:15:49.753Z,100.38
2022-12-19T07:18:16.895Z,111.12
2022-12-19T07:20:45.368Z,138.25
2022-12-19T07:23:15.029Z,113.00
2022-12-19T07:25:42.240Z,126.55
2022-12-19T07:28:09.702Z,95.93
2022-12-19T07:30:36.868Z,142.48
2022-12-19T07:33:04.020Z,171.05
2022-12-19T07:35:31.405Z,98.22
2022-12-19T07:38:02.787Z,99.37
2022-12-19T07:40:30.251Z,100.32
2022-12-19T07:43:01.534Z,74.45
2022-12-19T07:45:29.076Z,113.28
2022-12-19T07:47:59.270Z,123.90
2022-12-19T07:50:26.654Z,134.27
2022-12-19T07:52:53.734Z,89.60
2022-12-19T07:55:20.859Z,86.57
2022-12-19T07:57:48.235Z,102.12
2022-12-19T08:00:15.894Z,67.72
2022-12-19T08:02:43.927Z,71.90
2022-12-19T08:05:11.970Z,77.10
2022-12-19T08:07:39.155Z,73.25
2022-12-19T08:10:07.030Z,75.75
2022-12-19T08:12:34.338Z,68.10
2022-12-19T08:15:01.419Z,56.67
2022-12-19T08:17:28.901Z,56.37
2022-12-19T08:19:56.112Z,50.88
2022-12-19T08:22:23.399Z,59.70
2022-12-19T08:24:50.809Z,57.97
2022-12-19T08:27:17.919Z,67.68
2022-12-19T08:29:45.108Z,56.50
2022-12-19T08:32:18.681Z,63.55
2022-12-19T08:34:48.265Z,48.85
2022-12-19T08:37:15.624Z,60.58
2022-12-19T08:39:42.719Z,47.08
2022-12-19T08:42:09.841Z,46.90
2022-12-19T08:44:37.232Z,39.88
2022-12-19T08:47:04.718Z,34.45
2022-12-19T08:49:31.873Z,36.55
2022-12-19T08:51:59.308Z,35.65
2022-12-19T08:54:27.149Z,34.08
2022-12-19T08:56:54.405Z,35.55
2022-12-19T08:59:30.792Z,34.58
2022-12-19T09:02:00.749Z,40.72
2022-12-19T09:05:46.500Z,30.25
2022-12-19T09:07:18.984Z,29.55
2022-12-19T09:09:46.451Z,38.53
2022-12-19T09:12:14.761Z,35.70
2022-12-19T09:14:41.785Z,35.20
2022-12-19T09:17:09.248Z,35.55
2022-12-19T09:19:36.377Z,36.97
2022-12-19T09:22:03.631Z,27.80
2022-12-19T09:24:30.992Z,22.92
2022-12-19T09:26:58.067Z,30.25
2022-12-19T09:29:25.393Z,35.83
2022-12-19T09:31:56.115Z,26.92
2022-12-19T09:34:36.786Z,36.10
2022-12-19T09:37:10.357Z,34.13
2022-12-19T09:39:46.215Z,29.95
2022-12-19T09:42:30.565Z,28.48
2022-12-19T09:45:14.473Z,27.50
2022-12-19T09:47:47.567Z,33.55
2022-12-19T09:50:55.556Z,36.30
2022-12-19T09:53:59.820Z,30.98
2022-12-19T09:56:29.912Z,35.53
2022-12-19T09:59:45.973Z,30.88
2022-12-19T10:02:23.295Z,28.15
2022-12-19T10:05:05.970Z,32.60
2022-12-19T10:08:07.204Z,41.55
2022-12-19T10:12:40.313Z,40.83
2022-12-19T10:13:35.027Z,30.45
2022-12-19T10:16:27.451Z,37.58
2022-12-19T10:19:00.840Z,39.95
2022-12-19T10:22:17.883Z,30.40
2022-12-19T10:25:09.290Z,28.58
2022-12-19T10:28:15.928Z,30.27
2022-12-19T10:30:48.036Z,33.40
2022-12-19T10:33:21.246Z,30.48
2022-12-19T10:35:54.293Z,21.52
2022-12-19T10:38:49.283Z,37.50
2022-12-19T10:41:25.001Z,25.05
2022-12-19T10:44:07.247Z,30.23
2022-12-19T10:46:41.146Z,26.23
2022-12-19T10:49:20.141Z,38.67
2022-12-19T10:52:03.459Z,36.25
2022-12-19T10:54:41.134Z,46.72
2022-12-19T10:57:18.663Z,46.03
2022-12-19T10:59:59.036Z,32.40
2022-12-19T11:02:38.426Z,36.70
2022-12-19T11:05:21.509Z,33.25
2022-12-19T11:08:14.601Z,40.42
2022-12-19T11:12:56.834Z,26.73
2022-12-19T11:19:08.201Z,28.40
2022-12-19T11:22:59.583Z,38.03
2022-12-19T11:29:33.927Z,28.20
2022-12-19T11:29:44.094Z,33.03
2022-12-19T11:30:39.206Z,29.87
2022-12-19T11:30:41.837Z,34.35
2022-12-19T11:34:21.266Z,28.87
2022-12-19T11:36:53.119Z,32.83
2022-12-19T11:39:32.106Z,33.60
2022-12-19T11:42:02.127Z,43.10
2022-12-19T11:44:35.077Z,34.40
2022-12-19T11:47:18.214Z,40.70
2022-12-19T11:49:53.832Z,25.08
2022-12-19T11:53:02.773Z,39.92
2022-12-19T11:55:38.232Z,38.58
2022-12-19T11:58:06.079Z,21.50
2022-12-19T12:00:34.840Z,43.95
2022-12-19T12:03:31.589Z,32.85
2022-12-19T12:05:58.764Z,34.90
2022-12-19T12:10:09.385Z,32.92
2022-12-19T12:17:02.648Z,29.25
2022-12-19T12:27:35.941Z,20.45
2022-12-19T12:27:49.062Z,27.13
2022-12-19T12:31:20.142Z,22.73
2022-12-19T12:31:38.593Z,28.00
2022-12-19T12:31:50.264Z,28.55
2022-12-19T12:35:40.505Z,23.73
2022-12-19T12:35:47.064Z,28.75
2022-12-19T12:38:14.796Z,34.70
2022-12-19T12:40:40.648Z,25.30
2022-12-19T12:43:26.335Z,28.70
2022-12-19T12:45:53.929Z,32.55
2022-12-19T12:48:25.507Z,25.20
2022-12-19T12:50:55.352Z,38.28
2022-12-19T12:53:28.756Z,35.83
2022-12-19T12:55:57.161Z,34.83
2022-12-19T12:58:42.828Z,25.92
2022-12-19T13:01:12.714Z,30.67
2022-12-19T13:03:42.298Z,29.25
2022-12-19T13:06:36.535Z,38.00
2022-12-19T13:09:09.161Z,38.53
2022-12-19T13:11:59.523Z,37.10
2022-12-19T13:14:35.767Z,29.55
2022-12-19T13:17:07.266Z,26.90
2022-12-19T13:19:58.924Z,30.00
2022-12-19T13:22:28.950Z,35.33
2022-12-19T13:24:57.673Z,35.63
2022-12-19T13:27:36.079Z,38.28
2022-12-19T13:30:14.218Z,25.73
2022-12-19T13:32:41.244Z,31.08
2022-12-19T13:35:54.326Z,31.35
2022-12-19T13:39:49.871Z,54.65
2022-12-19T13:41:45.614Z,23.73
2022-12-19T13:44:12.988Z,29.83
2022-12-19T13:46:44.674Z,31.75
2022-12-19T13:49:19.406Z,37.60
2022-12-19T13:51:47.936Z,28.62
2022-12-19T13:54:45.429Z,29.52
2022-12-19T13:57:25.165Z,28.80
2022-12-19T14:00:00.464Z,38.92
2022-12-19T14:02:44.775Z,27.05
2022-12-19T14:06:14.293Z,32.65
2022-12-19T14:08:23.598Z,36.08
2022-12-19T14:11:35.283Z,29.52
2022-12-19T14:14:10.729Z,38.58
2022-12-19T14:16:44.686Z,35.42
2022-12-19T14:19:18.414Z,25.10
2022-12-19T14:22:04.563Z,38.72
2022-12-19T14:24:33.056Z,37.55
2022-12-19T14:28:18.618Z,26.50
2022-12-19T14:30:31.006Z,44.13
2022-12-19T14:33:46.388Z,35.55
2022-12-19T14:36:09.796Z,42.28
2022-12-19T14:39:24.147Z,38.08
2022-12-19T14:41:46.969Z,31.33
2022-12-19T14:51:51.661Z,26.10
2022-12-19T14:54:13.937Z,33.88
2022-12-19T14:54:17.042Z,30.85
2022-12-19T14:54:40.481Z,44.60
2022-12-19T14:56:11.484Z,41.90
2022-12-19T14:58:53.361Z,50.20
2022-12-19T15:01:24.960Z,38.42
2022-12-19T15:04:53.510Z,32.85
2022-12-19T15:07:09.518Z,38.58
2022-12-19T15:11:05.356Z,40.30
2022-12-19T15:14:46.967Z,28.27
2022-12-19T15:15:56.354Z,29.85
2022-12-19T15:18:33.022Z,44.17
2022-12-19T15:21:02.677Z,37.10
2022-12-19T15:23:30.444Z,41.45
2022-12-19T15:26:06.192Z,35.40
2022-12-19T15:28:47.780Z,49.47
2022-12-19T15:31:17.713Z,32.47
2022-12-19T15:34:14.354Z,35.58
2022-12-19T15:36:32.921Z,38.45
2022-12-19T15:39:00.309Z,42.62
2022-12-19T15:41:27.602Z,40.53
2022-12-19T15:44:04.095Z,39.63
2022-12-19T15:46:32.694Z,39.60
2022-12-19T15:48:59.840Z,38.80
2022-12-19T15:51:26.939Z,42.47
2022-12-19T15:54:15.541Z,45.20
2022-12-19T15:56:47.385Z,36.72
2022-12-19T15:59:47.674Z,41.33
2022-12-19T16:02:21.730Z,38.85
2022-12-19T16:04:50.430Z,43.20
2022-12-19T16:07:22.852Z,40.65
2022-12-19T16:09:50.272Z,34.70
2022-12-19T16:12:20.353Z,25.48
2022-12-19T16:14:56.702Z,34.42
2022-12-19T16:17:25.458Z,38.92
2022-12-19T16:19:52.611Z,38.08
2022-12-19T16:22:24.455Z,31.92
2022-12-19T16:24:52.785Z,40.72
2022-12-19T16:27:30.260Z,44.63
2022-12-19T16:30:02.845Z,35.50
2022-12-19T16:32:29.935Z,42.72
2022-12-19T16:34:57.285Z,38.30
2022-12-19T16:37:31.797Z,37.58
2022-12-19T16:39:59.769Z,44.97
2022-12-19T16:42:28.275Z,31.70
2022-12-19T16:44:55.489Z,31.58
2022-12-19T16:47:22.913Z,28.02
2022-12-19T16:49:50.076Z,51.45
2022-12-19T16:52:17.150Z,42.83
2022-12-19T16:54:44.539Z,38.58
2022-12-19T16:57:19.996Z,36.47
2022-12-19T16:59:48.010Z,51.13
2022-12-19T17:02:34.094Z,34.45
2022-12-19T17:05:01.552Z,28.40
2022-12-19T17:07:29.185Z,37.13
2022-12-19T17:09:56.235Z,41.05
2022-12-19T17:12:25.137Z,28.08
2022-12-19T17:14:52.220Z,49.53
2022-12-19T17:17:19.275Z,42.67
2022-12-19T17:19:46.733Z,26.02
2022-12-19T17:22:15.431Z,52.60
2022-12-19T17:24:44.045Z,43.55
2022-12-19T17:27:11.348Z,36.03
2022-12-19T17:29:38.400Z,38.00
2022-12-19T17:32:08.993Z,40.67
2022-12-19T17:34:36.411Z,39.13
2022-12-19T17:37:05.228Z,36.20
2022-12-19T17:39:34.527Z,38.63
2022-12-19T17:42:10.950Z,53.15
2022-12-19T17:44:37.981Z,42.05
2022-12-19T17:47:05.495Z,29.90
2022-12-19T17:49:32.862Z,31.05
2022-12-19T17:52:00.251Z,43.80
2022-12-19T17:54:27.617Z,50.28
2022-12-19T17:56:55.244Z,31.83
2022-12-19T17:59:22.248Z,29.92
2022-12-19T18:01:49.950Z,44.47
2022-12-19T18:04:18.943Z,39.53
2022-12-19T18:06:46.471Z,50.22
2022-12-19T18:09:24.185Z,51.80
2022-12-19T18:11:52.863Z,28.98
2022-12-19T18:14:20.545Z,40.05
2022-12-19T18:16:48.158Z,35.55
2022-12-19T18:19:23.559Z,34.80
2022-12-19T18:21:50.658Z,52.00
2022-12-19T18:24:18.054Z,40.05
2022-12-19T18:26:45.245Z,30.15
2022-12-19T18:29:12.844Z,52.40
2022-12-19T18:31:48.187Z,41.35
2022-12-19T18:34:23.047Z,37.00
2022-12-19T18:36:51.257Z,36.28
2022-12-19T18:39:21.392Z,47.22
2022-12-19T18:41:50.031Z,41.92
2022-12-19T18:44:17.711Z,50.78
2022-12-19T18:46:45.468Z,34.50
2022-12-19T18:49:16.908Z,29.98
2022-12-19T18:51:44.968Z,40.28
2022-12-19T18:54:13.666Z,31.90
2022-12-19T18:56:40.769Z,40.15
2022-12-19T18:59:09.461Z,40.22
2022-12-19T19:01:40.157Z,48.30
2022-12-19T19:04:08.888Z,33.85
2022-12-19T19:06:38.152Z,44.28
2022-12-19T19:09:13.135Z,37.90
2022-12-19T19:11:42.418Z,47.65
2022-12-19T19:14:09.668Z,31.27
2022-12-19T19:16:40.164Z,38.60
2022-12-19T19:19:10.892Z,36.45
2022-12-19T19:21:38.886Z,46.20
2022-12-19T19:24:09.252Z,36.40
2022-12-19T19:26:36.833Z,31.05
2022-12-19T19:29:04.166Z,39.13
2022-12-19T19:31:34.457Z,41.58
2022-12-19T19:34:10.009Z,25.30
2022-12-19T19:36:40.397Z,44.67
2022-12-19T19:39:07.753Z,42.83
2022-12-19T19:41:34.773Z,35.08
2022-12-19T19:44:01.920Z,31.08
2022-12-19T19:46:29.456Z,34.50
2022-12-19T19:48:57.143Z,55.65
2022-12-19T19:51:24.771Z,37.58
2022-12-19T19:53:52.156Z,38.97
2022-12-19T19:56:19.462Z,43.78
2022-12-19T19:58:46.577Z,46.28
2022-12-19T20:01:14.397Z,40.88
2022-12-19T20:03:43.159Z,31.55
2022-12-19T20:06:11.030Z,42.30
2022-12-19T20:08:40.222Z,49.80
2022-12-19T20:11:08.735Z,43.03
2022-12-19T20:13:36.116Z,40.42
2022-12-19T20:16:23.474Z,48.45
2022-12-19T20:18:52.447Z,43.05
2022-12-19T20:21:20.088Z,40.47
2022-12-19T20:23:47.343Z,36.08
2022-12-19T20:26:16.395Z,53.38
2022-12-19T20:28:49.250Z,45.95
2022-12-19T20:31:19.626Z,48.85
2022-12-19T20:33:48.281Z,52.22
2022-12-19T20:36:16.668Z,46.70
2022-12-19T20:38:44.182Z,50.55
2022-12-19T20:41:11.180Z,56.15
2022-12-19T20:43:38.653Z,51.58
2022-12-19T20:46:08.592Z,52.05
2022-12-19T20:48:36.490Z,46.58
2022-12-19T20:51:05.178Z,58.85
2022-12-19T20:53:34.815Z,53.28
2022-12-19T20:56:03.733Z,48.85
2022-12-19T20:58:33.115Z,45.50
2022-12-19T21:01:09.355Z,43.55
2022-12-19T21:03:37.853Z,48.28
2022-12-19T21:06:05.867Z,43.83
2022-12-19T21:08:33.529Z,49.40
2022-12-19T21:11:01.884Z,63.55
2022-12-19T21:13:29.572Z,56.10
2022-12-19T21:15:58.734Z,49.15
2022-12-19T21:18:26.904Z,54.30
2022-12-19T21:20:54.835Z,43.80
2022-12-19T21:23:23.138Z,37.55
2022-12-19T21:25:50.233Z,33.47
2022-12-19T21:28:17.998Z,47.10
2022-12-19T21:30:45.308Z,55.75
2022-12-19T21:33:12.363Z,49.20
2022-12-19T21:35:39.752Z,43.47
2022-12-19T21:38:06.814Z,37.72
2022-12-19T21:40:36.073Z,51.08
2022-12-19T21:43:11.176Z,43.72
2022-12-19T21:45:39.190Z,46.40
2022-12-19T21:48:06.958Z,55.70
2022-12-19T21:50:34.106Z,40.63
2022-12-19T21:53:01.246Z,61.80
2022-12-19T21:55:28.589Z,42.90
2022-12-19T21:57:55.808Z,52.95
2022-12-19T22:00:23.068Z,42.25
2022-12-19T22:03:12.760Z,54.50
2022-12-19T22:05:38.250Z,45.38
2022-12-19T22:08:05.653Z,55.08
2022-12-19T22:10:32.763Z,48.00
2022-12-19T22:12:59.832Z,37.60
2022-12-19T22:15:27.174Z,54.97
2022-12-19T22:17:54.252Z,49.70
2022-12-19T22:20:21.301Z,43.28
2022-12-19T22:22:48.655Z,50.15
2022-12-19T22:25:15.778Z,44.90
2022-12-19T22:27:42.845Z,44.22
2022-12-19T22:30:11.349Z,39.72
2022-12-19T22:32:38.619Z,25.05
2022-12-19T22:35:06.239Z,45.03
2022-12-19T22:37:33.642Z,58.63
2022-12-19T22:40:04.071Z,50.70
2022-12-19T22:42:31.183Z,59.25
2022-12-19T22:44:59.318Z,34.53
2022-12-19T22:47:26.375Z,40.92
2022-12-19T22:49:53.425Z,36.85
2022-12-19T22:52:20.880Z,61.63
2022-12-19T22:54:48.077Z,36.65
2022-12-19T22:57:15.614Z,41.70
2022-12-19T22:59:43.033Z,49.75
2022-12-19T23:02:10.326Z,47.15
2022-12-19T23:04:37.518Z,47.60
2022-12-19T23:07:04.872Z,40.92
2022-12-19T23:09:31.936Z,50.22
2022-12-19T23:11:59.125Z,50.28
2022-12-19T23:14:26.524Z,58.38
2022-12-19T23:16:53.560Z,43.15
2022-12-19T23:19:20.652Z,53.92
2022-12-19T23:21:47.942Z,49.08
2022-12-19T23:24:15.125Z,30.48
2022-12-19T23:26:42.382Z,47.88
2022-12-19T23:29:14.098Z,50.00
2022-12-19T23:31:42.688Z,54.42
2022-12-19T23:34:10.612Z,58.33
2022-12-19T23:37:09.512Z,41.97
2022-12-19T23:39:25.428Z,37.80
2022-12-19T23:41:52.460Z,52.47
2022-12-19T23:44:19.633Z,48.55
2022-12-19T23:46:46.896Z,43.90
2022-12-19T23:49:14.254Z,47.08
2022-12-19T23:51:41.263Z,49.40
2022-12-19T23:54:11.556Z,38.20
2022-12-19T23:56:38.654Z,47.78
2022-12-19T23:59:05.674Z,46.47
